Time;durP1;ratioP1;P1;durP2;ratioP2;P2;SDS_P1;SDS_P2;PMS_P1;PMS_P2;Temp;Humidity;BMP_temperature;BMP_pressure;BME280_temperature;BME280_humidity;BME280_pressure;Samples;Min_cycle;Max_cycle;Signal;HPM_P1;HPM_P2
2021/07/22 00:02:48;;;;;;;12.23;4.90;;;;;;;19.59;100.00;99078.17;1776871;81;21310;-82
2021/07/22 00:05:55;;;;;;;9.05;5.25;;;;;;;19.54;100.00;99075.36;1776363;81;21378;-82
2021/07/22 00:09:01;;;;;;;10.03;5.35;;;;;;;19.51;100.00;99073.11;1775295;81;21307;-82
2021/07/22 00:12:07;;;;;;;9.53;5.97;;;;;;;19.48;100.00;99075.05;1769066;81;21850;-81
2021/07/22 00:15:14;;;;;;;7.37;5.45;;;;;;;19.47;100.00;99074.73;1771413;81;21185;-82
2021/07/22 00:18:19;;;;;;;13.48;5.40;;;;;;;19.44;100.00;99078.05;1771488;81;21802;-82
2021/07/22 00:21:26;;;;;;;7.75;5.33;;;;;;;19.42;100.00;99078.86;1771453;81;21294;-83
2021/07/22 00:24:32;;;;;;;15.43;6.55;;;;;;;19.39;100.00;99074.69;1771321;81;21334;-82
2021/07/22 00:27:37;;;;;;;8.98;6.12;;;;;;;19.36;100.00;99091.00;1771199;81;21605;-82
2021/07/22 00:30:45;;;;;;;11.97;5.97;;;;;;;19.35;100.00;99081.86;1771285;81;21378;-82
2021/07/22 00:33:50;;;;;;;8.93;5.95;;;;;;;19.35;100.00;99072.16;1771433;81;21913;-82
2021/07/22 00:36:56;;;;;;;9.08;5.85;;;;;;;19.35;100.00;99080.47;1770363;81;21308;-82
2021/07/22 00:40:02;;;;;;;8.75;6.10;;;;;;;19.36;100.00;99070.22;1771181;81;21204;-82
2021/07/22 00:43:10;;;;;;;15.45;6.50;;;;;;;19.34;100.00;99074.64;1771258;81;21720;-82
2021/07/22 00:46:16;;;;;;;10.88;6.67;;;;;;;19.35;100.00;99069.38;1770962;81;21724;-82
2021/07/22 00:49:23;;;;;;;8.28;6.45;;;;;;;19.34;100.00;99065.50;1772036;81;21295;-82
2021/07/22 00:52:29;;;;;;;11.78;7.08;;;;;;;19.34;100.00;99064.94;1771226;81;21295;-82
2021/07/22 00:55:36;;;;;;;8.98;6.72;;;;;;;19.32;100.00;99069.06;1771497;81;21851;-82
2021/07/22 00:58:41;;;;;;;10.82;6.50;;;;;;;19.31;100.00;99075.16;1771181;81;21929;-82
2021/07/22 01:01:46;;;;;;;8.50;5.80;;;;;;;19.29;100.00;99081.53;1770209;80;21315;-82
2021/07/22 01:04:51;;;;;;;13.25;7.47;;;;;;;19.30;100.00;99076.83;1769869;81;21311;-82
2021/07/22 01:07:56;;;;;;;12.10;7.53;;;;;;;19.29;100.00;99089.84;1769877;81;21350;-82
2021/07/22 01:11:02;;;;;;;11.97;6.95;;;;;;;19.30;100.00;99093.45;1769112;81;22470;-82
2021/07/22 01:14:08;;;;;;;24.87;8.00;;;;;;;19.30;100.00;99102.61;1780409;80;21719;-82
2021/07/22 01:17:16;;;;;;;14.73;7.95;;;;;;;19.29;100.00;99084.83;1780299;80;21160;-82
2021/07/22 01:20:29;;;;;;;9.98;7.30;;;;;;;19.32;100.00;99096.23;1780342;80;21247;-82
2021/07/22 01:23:34;;;;;;;11.33;7.37;;;;;;;19.35;100.00;99085.19;1781532;80;21224;-82
2021/07/22 01:26:57;;;;;;;11.90;7.58;;;;;;;19.36;100.00;99087.68;1781166;80;21330;-82
2021/07/22 01:30:08;;;;;;;12.65;8.73;;;;;;;19.41;100.00;99096.59;1781945;80;21310;-82
2021/07/22 01:33:13;;;;;;;12.45;7.40;;;;;;;19.44;100.00;99093.31;1780354;80;21830;-82
2021/07/22 01:36:22;;;;;;;13.95;8.58;;;;;;;19.45;100.00;99094.97;1780362;80;22470;-82
2021/07/22 01:39:28;;;;;;;10.68;7.78;;;;;;;19.47;100.00;99097.47;1781017;80;21728;-83
2021/07/22 01:42:37;;;;;;;14.28;8.50;;;;;;;19.48;100.00;99101.91;1781765;80;21295;-83
2021/07/22 01:45:44;;;;;;;12.45;8.33;;;;;;;19.52;100.00;99105.28;1781334;80;21353;-83
2021/07/22 01:48:49;;;;;;;13.10;8.65;;;;;;;19.55;100.00;99115.02;1781698;80;21295;-82
2021/07/22 01:51:55;;;;;;;22.02;9.60;;;;;;;19.59;100.00;99110.63;1781751;80;21295;-82
2021/07/22 01:55:04;;;;;;;12.00;9.40;;;;;;;19.63;100.00;99113.19;1780923;80;21326;-83
2021/07/22 01:58:13;;;;;;;14.18;8.73;;;;;;;19.65;100.00;99117.91;1780742;80;21318;-83
2021/07/22 02:01:18;;;;;;;14.90;9.40;;;;;;;19.68;100.00;99118.78;1780128;80;21366;-83
2021/07/22 02:04:29;;;;;;;22.30;9.88;;;;;;;19.72;100.00;99117.70;1775628;80;21318;-83
2021/07/22 02:07:33;;;;;;;15.80;10.50;;;;;;;19.75;100.00;99128.25;1780349;80;21401;-83
2021/07/22 02:10:41;;;;;;;18.45;10.82;;;;;;;19.78;100.00;99126.34;1780149;80;21200;-82
2021/07/22 02:13:49;;;;;;;14.28;10.25;;;;;;;19.80;100.00;99127.73;1772135;80;21311;-82
2021/07/22 02:16:56;;;;;;;24.00;10.90;;;;;;;19.82;100.00;99130.27;1771218;81;21303;-82
2021/07/22 02:20:02;;;;;;;21.65;10.70;;;;;;;19.84;100.00;99128.89;1771221;81;21346;-82
2021/07/22 02:23:08;;;;;;;18.10;10.20;;;;;;;19.86;100.00;99132.25;1750833;81;22482;-82
2021/07/22 02:26:28;;;;;;;17.82;10.93;;;;;;;19.89;100.00;99131.70;1769535;81;21320;-82
2021/07/22 02:29:34;;;;;;;20.02;11.63;;;;;;;19.91;100.00;99139.78;1771250;81;21603;-82
2021/07/22 02:32:41;;;;;;;18.15;10.78;;;;;;;19.94;100.00;99135.06;1771342;81;21326;-82
2021/07/22 02:35:47;;;;;;;24.10;12.37;;;;;;;19.96;100.00;99144.53;1771333;81;21299;-82
2021/07/22 02:39:03;;;;;;;20.25;10.88;;;;;;;19.98;100.00;99145.92;1744959;81;21370;-82
2021/07/22 02:42:10;;;;;;;21.57;11.97;;;;;;;20.00;100.00;99143.73;1771364;81;21339;-83
2021/07/22 02:45:17;;;;;;;33.60;11.78;;;;;;;20.03;100.00;99151.51;1771253;81;21300;-82
2021/07/22 02:48:23;;;;;;;24.18;11.63;;;;;;;20.08;100.00;99153.48;1770671;81;21330;-82
2021/07/22 02:51:29;;;;;;;20.37;12.47;;;;;;;20.11;100.00;99153.80;1771209;81;21581;-82
2021/07/22 02:54:35;;;;;;;29.60;13.28;;;;;;;20.16;100.00;99152.44;1771205;81;21232;-82
2021/07/22 02:57:42;;;;;;;17.50;12.25;;;;;;;20.19;100.00;99158.58;1771130;81;21303;-83
2021/07/22 03:00:47;;;;;;;27.58;13.58;;;;;;;20.20;100.00;99161.63;1770681;80;21942;-82
2021/07/22 03:03:54;;;;;;;29.75;12.80;;;;;;;20.20;100.00;99161.63;1771264;81;21295;-83
2021/07/22 03:07:01;;;;;;;26.07;14.15;;;;;;;20.20;100.00;99158.86;1769779;81;21203;-83
2021/07/22 03:10:08;;;;;;;23.02;13.98;;;;;;;20.19;100.00;99163.58;1771507;81;21205;-83
2021/07/22 03:13:14;;;;;;;30.75;15.35;;;;;;;20.20;100.00;99171.35;1770701;80;21296;-83
2021/07/22 03:16:21;;;;;;;24.40;14.07;;;;;;;20.20;100.00;99164.41;1753466;80;21295;-82
2021/07/22 03:19:39;;;;;;;25.25;13.83;;;;;;;20.22;100.00;99160.80;1780363;80;21192;-83
2021/07/22 03:22:46;;;;;;;27.73;13.15;;;;;;;20.24;100.00;99167.77;1781792;80;21299;-83
2021/07/22 03:25:54;;;;;;;27.90;14.53;;;;;;;20.28;100.00;99170.30;1781296;80;21338;-83
2021/07/22 03:29:06;;;;;;;22.02;14.18;;;;;;;20.32;100.00;99159.47;1780996;80;21755;-83
2021/07/22 03:32:13;;;;;;;28.77;14.80;;;;;;;20.34;100.00;99161.45;1781740;80;21432;-83
2021/07/22 03:35:19;;;;;;;24.20;14.33;;;;;;;20.38;100.00;99172.31;1781688;80;21727;-83
2021/07/22 03:38:23;;;;;;;24.47;14.50;;;;;;;20.37;100.00;99168.70;1781559;80;21199;-83
2021/07/22 03:41:49;;;;;;;25.65;14.53;;;;;;;20.38;100.00;99166.75;1780795;80;21211;-82
2021/07/22 03:44:57;;;;;;;28.20;15.28;;;;;;;20.40;100.00;99171.48;1781978;80;21794;-83
2021/07/22 03:48:08;;;;;;;27.40;13.22;;;;;;;20.38;100.00;99170.92;1781398;80;21291;-83
2021/07/22 03:51:13;;;;;;;30.43;12.37;;;;;;;20.40;100.00;99170.92;1780514;80;21302;-83
2021/07/22 03:54:19;;;;;;;18.50;11.05;;;;;;;20.38;99.94;99168.14;1781813;80;21307;-83
2021/07/22 03:57:25;;;;;;;25.97;11.38;;;;;;;20.36;98.17;99174.50;1780561;80;21223;-83
2021/07/22 04:00:31;;;;;;;21.93;10.28;;;;;;;20.31;96.20;99183.63;1780291;80;21341;-84
2021/07/22 04:03:38;;;;;;;22.22;11.38;;;;;;;20.30;96.35;99178.36;1781905;80;21814;-83
2021/07/22 04:06:44;;;;;;;20.95;11.48;;;;;;;20.27;96.13;99176.94;1782041;80;21302;-83
2021/07/22 04:09:53;;;;;;;26.60;11.65;;;;;;;20.27;95.87;99174.72;1772900;80;21810;-82
2021/07/22 04:13:06;;;;;;;27.85;13.22;;;;;;;20.25;96.15;99184.70;1780262;80;21255;-83
2021/07/22 04:16:14;;;;;;;24.75;12.15;;;;;;;20.24;96.58;99178.05;1767013;80;21324;-82
2021/07/22 04:19:25;;;;;;;25.32;13.28;;;;;;;20.22;96.53;99174.68;1763763;81;21359;-82
2021/07/22 04:22:37;;;;;;;20.65;12.43;;;;;;;20.17;96.92;99176.31;1764331;81;21201;-83
2021/07/22 04:25:45;;;;;;;28.57;12.63;;;;;;;20.12;96.35;99187.38;1741292;81;21375;-82
2021/07/22 04:28:55;;;;;;;20.77;11.73;;;;;;;20.07;96.50;99185.95;1764525;81;21225;-82
2021/07/22 04:32:03;;;;;;;;;;;;;;;20.02;96.72;99180.38;1767002;81;21169;-82
2021/07/22 04:35:14;;;;;;;27.75;11.53;;;;;;;19.99;96.79;99190.60;1718220;81;20270;-82
2021/07/22 04:38:38;;;;;;;23.77;13.75;;;;;;;19.92;97.28;99184.45;1759364;81;21208;-82
2021/07/22 04:41:47;;;;;;;24.02;12.13;;;;;;;19.89;97.61;99184.97;1740973;82;21885;-83
2021/07/22 04:44:54;;;;;;;20.82;11.05;;;;;;;19.89;97.67;99189.97;1740673;82;21224;-83
2021/07/22 04:50:56;;;;;;;19.82;10.80;;;;;;;19.99;96.58;99186.44;1877320;76;28064;-83
2021/07/22 04:54:06;;;;;;;23.62;10.20;;;;;;;20.01;95.42;99190.36;1846978;77;21291;-83
2021/07/22 04:57:10;;;;;;;17.30;8.85;;;;;;;20.01;95.01;99196.74;1849316;77;21330;-90
2021/07/22 05:00:19;;;;;;;19.80;9.88;;;;;;;20.02;94.88;99190.08;1841690;77;21303;-86
2021/07/22 05:03:25;;;;;;;15.20;9.60;;;;;;;20.05;95.43;99195.12;1816186;79;21580;-84
2021/07/22 05:06:33;;;;;;;18.25;10.03;;;;;;;20.11;95.19;99192.66;1793852;78;21220;-84
2021/07/22 05:09:51;;;;;;;19.15;8.95;;;;;;;20.19;94.46;99198.84;1809615;79;21283;-83
2021/07/22 05:13:07;;;;;;;;;;;;;;;20.23;94.08;99200.81;1733031;82;21291;-84
2021/07/22 05:16:28;;;;;;;12.25;8.23;;;;;;;20.24;92.75;99196.09;1663845;85;20256;-86
2021/07/22 05:19:35;;;;;;;19.35;8.30;;;;;;;20.21;91.50;99202.16;1754893;81;21320;-84
2021/07/22 05:22:55;;;;;;;12.43;7.90;;;;;;;20.16;91.32;99198.25;1700107;81;21822;-85
2021/07/22 05:26:03;;;;;;;12.35;7.37;;;;;;;20.13;91.41;99207.09;1734286;81;21908;-84
2021/07/22 05:29:20;;;;;;;11.73;6.70;;;;;;;20.12;91.01;99209.59;1760061;81;21345;-84
2021/07/22 05:32:31;;;;;;;14.60;8.10;;;;;;;20.08;90.49;99203.45;1757117;81;21909;-84
2021/07/22 05:35:48;;;;;;;15.70;7.75;;;;;;;20.10;91.07;99204.88;1749736;81;21307;-84
2021/07/22 05:39:02;;;;;;;15.30;6.83;;;;;;;20.16;90.52;99204.35;1711519;81;21314;-83
2021/07/22 05:42:07;;;;;;;13.68;7.58;;;;;;;20.21;90.50;99203.55;1759357;81;21283;-84
2021/07/22 05:45:14;;;;;;;15.32;9.20;;;;;;;20.28;90.39;99209.70;1733974;81;21210;-84
2021/07/22 05:48:21;;;;;;;16.25;10.35;;;;;;;20.27;89.57;99218.59;1752076;81;21291;-84
2021/07/22 05:51:26;;;;;;;15.00;9.18;;;;;;;20.23;89.98;99218.86;1739038;82;21335;-84
2021/07/22 05:54:32;;;;;;;13.85;8.20;;;;;;;20.16;89.92;99223.23;1718633;83;21306;-82
2021/07/22 05:57:37;;;;;;;16.77;8.95;;;;;;;20.10;89.78;99224.86;1734329;82;21218;-83
2021/07/22 06:00:44;;;;;;;13.22;8.88;;;;;;;20.07;90.85;99233.14;1743348;81;21573;-82
2021/07/22 06:03:51;;;;;;;16.77;10.20;;;;;;;20.05;90.39;99231.20;1731358;82;21942;-83
2021/07/22 06:06:57;;;;;;;14.85;8.70;;;;;;;20.03;91.13;99226.44;1763978;80;21299;-84
2021/07/22 06:10:03;;;;;;;18.42;8.63;;;;;;;20.03;90.42;99231.16;1745245;82;21196;-85
2021/07/22 06:13:08;;;;;;;15.68;7.70;;;;;;;20.01;90.62;99234.21;1773243;80;21686;-87
2021/07/22 06:16:20;;;;;;;16.70;8.83;;;;;;;19.99;90.87;99236.95;1773534;80;21590;-85
2021/07/22 06:19:26;;;;;;;12.37;8.65;;;;;;;19.97;91.62;99232.23;1720071;82;21949;-85
2021/07/22 06:22:31;;;;;;;14.35;8.80;;;;;;;19.98;91.97;99238.89;1729978;82;21318;-84
2021/07/22 06:25:37;;;;;;;14.30;8.25;;;;;;;19.99;90.72;99255.83;1741473;81;21316;-82
2021/07/22 06:28:42;;;;;;;14.95;7.78;;;;;;;19.98;90.83;99251.94;1745333;82;22793;-83
2021/07/22 06:31:48;;;;;;;11.57;7.70;;;;;;;19.98;91.57;99250.55;1738636;81;21305;-85
2021/07/22 06:34:54;;;;;;;16.30;8.50;;;;;;;20.00;91.62;99246.42;1734642;82;21304;-85
2021/07/22 06:37:59;;;;;;;14.15;8.73;;;;;;;20.01;91.75;99250.03;1752390;80;21253;-87
2021/07/22 06:41:05;;;;;;;14.58;7.80;;;;;;;20.00;91.63;99256.69;1744824;82;21244;-85
2021/07/22 06:44:10;;;;;;;18.80;8.40;;;;;;;19.99;91.38;99259.16;1716425;82;21337;-85
2021/07/22 06:47:16;;;;;;;14.85;8.25;;;;;;;19.99;90.98;99255.83;1743853;81;21598;-84
2021/07/22 06:50:22;;;;;;;14.07;7.83;;;;;;;19.97;91.30;99262.20;1735402;82;21362;-83
2021/07/22 06:53:27;;;;;;;11.53;6.40;;;;;;;19.97;91.84;99262.20;1730579;82;21240;-83
2021/07/22 06:56:33;;;;;;;19.73;7.53;;;;;;;19.97;91.33;99262.20;1727858;82;21395;-82
2021/07/22 06:59:42;;;;;;;13.50;6.90;;;;;;;19.90;89.86;99257.41;1699289;83;21256;-81
2021/07/22 07:02:48;;;;;;;12.30;7.35;;;;;;;19.86;89.62;99266.83;1732022;81;21614;-85
2021/07/22 07:05:53;;;;;;;9.48;6.42;;;;;;;19.86;89.84;99271.54;1741710;82;21207;-83
2021/07/22 07:09:00;;;;;;;13.48;6.80;;;;;;;19.89;89.66;99251.02;1731822;82;21514;-84
2021/07/22 07:12:07;;;;;;;14.98;6.67;;;;;;;19.95;89.76;99254.70;1722470;82;21314;-83
2021/07/22 07:15:14;;;;;;;12.45;7.25;;;;;;;19.98;89.62;99251.38;1728998;82;21307;-84
2021/07/22 07:18:20;;;;;;;17.17;7.17;;;;;;;20.02;89.49;99251.14;1710945;82;21354;-82
2021/07/22 07:21:25;;;;;;;9.60;6.10;;;;;;;20.07;89.97;99252.58;1723455;82;21296;-83
2021/07/22 07:24:30;;;;;;;15.72;6.80;;;;;;;20.19;90.51;99247.41;1727503;82;21803;-83
2021/07/22 07:27:36;;;;;;;15.13;6.95;;;;;;;20.31;89.62;99239.72;1734042;82;21313;-82
2021/07/22 07:30:42;;;;;;;18.35;6.60;;;;;;;20.47;88.50;99251.28;1718035;82;21373;-82
2021/07/22 07:33:47;;;;;;;10.32;5.45;;;;;;;20.63;88.03;99242.48;1690866;85;21396;-82
2021/07/22 07:36:56;;;;;;;8.20;5.20;;;;;;;20.83;85.96;99259.83;1690316;85;21182;-80
2021/07/22 07:40:01;;;;;;;16.50;6.08;;;;;;;20.93;84.09;99244.59;1730286;82;21901;-81
2021/07/22 07:43:06;;;;;;;13.38;4.97;;;;;;;21.04;82.91;99242.72;1701108;83;21321;-82
2021/07/22 07:46:12;;;;;;;7.83;4.60;;;;;;;21.14;83.12;99238.59;1692820;83;21351;-82
2021/07/22 07:49:17;;;;;;;10.80;5.00;;;;;;;21.41;83.83;99255.98;1723188;82;21183;-82
2021/07/22 07:52:23;;;;;;;12.37;5.65;;;;;;;21.66;81.95;99247.42;1717299;83;21698;-83
2021/07/22 07:55:29;;;;;;;14.00;4.53;;;;;;;21.90;81.90;99240.78;1746474;82;21347;-82
2021/07/22 07:58:38;;;;;;;;;;;;;;;22.15;80.42;99243.60;1745626;82;21292;-82
2021/07/22 08:01:44;;;;;;;10.63;4.60;;;;;;;22.31;79.32;99244.45;1765555;80;20300;-83
2021/07/22 08:04:50;;;;;;;5.85;3.98;;;;;;;22.30;77.25;99248.36;1762484;80;21212;-83
2021/07/22 08:07:55;;;;;;;7.53;5.45;;;;;;;22.30;77.84;99246.11;1747046;82;21384;-83
2021/07/22 08:11:02;;;;;;;8.25;4.62;;;;;;;22.34;77.35;99268.11;1745438;82;21306;-82
2021/07/22 08:14:09;;;;;;;10.93;5.15;;;;;;;22.31;75.91;99254.77;1746788;82;21299;-83
2021/07/22 08:17:15;;;;;;;10.60;4.95;;;;;;;22.34;77.30;99252.80;1742447;82;21240;-83
2021/07/22 08:20:21;;;;;;;8.20;4.25;;;;;;;22.50;77.55;99246.11;1730778;82;21303;-81
2021/07/22 08:23:25;;;;;;;6.92;4.30;;;;;;;22.70;76.12;99250.25;1737809;82;21751;-82
2021/07/22 08:26:30;;;;;;;11.00;4.62;;;;;;;22.92;76.22;99254.14;1759527;80;21297;-82
2021/07/22 08:29:36;;;;;;;7.10;4.05;;;;;;;23.07;74.01;99256.05;1762861;80;21184;-83
2021/07/22 08:32:41;;;;;;;8.53;5.25;;;;;;;23.19;74.26;99257.94;1770798;80;21309;-82
2021/07/22 08:35:47;;;;;;;7.00;4.70;;;;;;;23.32;73.92;99262.64;1775075;80;22037;-82
2021/07/22 08:38:54;;;;;;;9.28;4.58;;;;;;;23.35;72.89;99262.91;1758740;80;21282;-82
2021/07/22 08:41:59;;;;;;;10.08;4.90;;;;;;;23.38;71.63;99261.48;1724036;82;21295;-82
2021/07/22 08:45:05;;;;;;;9.60;5.05;;;;;;;23.35;70.53;99255.11;1727567;83;21307;-83
2021/07/22 08:48:12;;;;;;;9.93;4.85;;;;;;;23.33;71.72;99265.70;1747412;80;21240;-82
2021/07/22 08:51:17;;;;;;;11.10;5.30;;;;;;;23.39;69.88;99275.74;1744285;81;21344;-82
2021/07/22 08:54:23;;;;;;;7.50;4.78;;;;;;;23.39;70.22;99270.16;1748703;81;21292;-81
2021/07/22 08:57:33;;;;;;;5.10;3.85;;;;;;;23.35;70.67;99277.42;1753268;81;21296;-82
2021/07/22 09:00:39;;;;;;;6.95;4.58;;;;;;;23.37;70.18;99291.91;1796044;79;21166;-82
2021/07/22 09:03:45;;;;;;;5.22;3.83;;;;;;;23.33;69.24;99258.73;1775413;79;21281;-81
2021/07/22 09:06:53;;;;;;;10.00;3.67;;;;;;;23.36;69.76;99274.91;1796294;79;21184;-82
2021/07/22 09:10:13;;;;;;;11.12;4.10;;;;;;;23.47;71.22;99270.94;1770655;81;21220;-81
2021/07/22 09:13:31;;;;;;;7.80;4.22;;;;;;;23.52;70.26;99278.45;1789685;79;21346;-81
2021/07/22 09:16:44;;;;;;;5.85;3.62;;;;;;;23.44;69.71;99261.77;1796762;79;21177;-82
2021/07/22 09:19:51;;;;;;;10.18;3.60;;;;;;;23.40;68.91;99265.68;1783971;79;21281;-82
2021/07/22 09:22:56;;;;;;;5.53;3.40;;;;;;;23.46;69.03;99267.31;1791159;79;21237;-81
2021/07/22 09:26:03;;;;;;;8.23;3.72;;;;;;;23.51;68.39;99267.85;1789825;79;21315;-83
2021/07/22 09:29:16;;;;;;;10.35;4.03;;;;;;;23.59;68.40;99274.23;1787715;79;21339;-80
2021/07/22 09:32:20;;;;;;;7.95;3.87;;;;;;;23.62;67.63;99266.70;1782609;79;21275;-80
2021/07/22 09:35:27;;;;;;;6.85;3.75;;;;;;;23.48;66.84;99276.81;1788719;79;21300;-81
2021/07/22 09:38:33;;;;;;;6.15;3.02;;;;;;;23.34;67.96;99270.19;1775523;79;21271;-80
2021/07/22 09:41:38;;;;;;;4.53;2.98;;;;;;;23.18;69.10;99273.02;1792040;79;21712;-81
2021/07/22 09:44:47;;;;;;;9.93;3.80;;;;;;;23.20;69.32;99272.75;1788367;79;21339;-82
2021/07/22 09:47:56;;;;;;;7.42;3.85;;;;;;;23.31;67.01;99266.56;1791467;79;21838;-81
2021/07/22 09:51:00;;;;;;;;;;;;;;;23.44;68.06;99271.53;1788999;79;21173;-81
2021/07/22 09:54:15;;;;;;;6.40;3.72;;;;;;;23.60;66.00;99274.50;1784382;79;20308;-80
2021/07/22 09:57:24;;;;;;;8.70;4.05;;;;;;;23.77;65.46;99276.14;1788338;79;21248;-82
2021/07/22 10:00:30;;;;;;;9.53;4.72;;;;;;;23.85;64.94;99267.13;1791534;79;21344;-80
2021/07/22 10:03:37;;;;;;;12.95;4.30;;;;;;;23.82;64.59;99267.16;1784694;79;21900;-80
2021/07/22 10:06:42;;;;;;;7.17;3.60;;;;;;;23.80;62.25;99286.71;1783970;79;22349;-81
2021/07/22 10:09:48;;;;;;;11.03;4.25;;;;;;;23.75;64.29;99265.23;1777490;79;21293;-80
2021/07/22 10:13:05;;;;;;;10.28;4.05;;;;;;;23.74;62.13;99258.56;1779865;79;21343;-81
2021/07/22 10:16:14;;;;;;;6.72;4.47;;;;;;;23.77;63.45;99269.99;1793131;79;21667;-82
2021/07/22 10:19:19;;;;;;;8.05;4.20;;;;;;;23.82;62.60;99276.11;1790114;79;21675;-81
2021/07/22 10:22:25;;;;;;;9.30;4.20;;;;;;;23.86;63.30;99281.39;1788462;79;21323;-80
2021/07/22 10:25:32;;;;;;;7.97;3.87;;;;;;;23.92;62.75;99275.47;1781397;79;22167;-79
2021/07/22 10:28:38;;;;;;;5.62;4.15;;;;;;;24.04;61.67;99283.48;1783103;79;21232;-79
2021/07/22 10:31:47;;;;;;;12.03;4.33;;;;;;;24.10;60.51;99270.34;1790184;79;21323;-80
2021/07/22 10:34:54;;;;;;;9.73;4.00;;;;;;;24.08;60.91;99287.36;1796658;79;21330;-80
2021/07/22 10:38:23;;;;;;;7.08;4.22;;;;;;;24.01;61.13;99280.45;1767680;81;21881;-80
2021/07/22 10:41:44;;;;;;;8.33;4.47;;;;;;;23.97;60.32;99267.63;1794792;79;21280;-80
2021/07/22 10:44:51;;;;;;;7.10;4.20;;;;;;;24.00;61.55;99278.80;1774023;80;21209;-80
2021/07/22 10:48:15;;;;;;;10.13;4.00;;;;;;;24.06;60.43;99262.26;1791964;79;21760;-80
2021/07/22 10:51:27;;;;;;;9.20;4.62;;;;;;;24.11;59.28;99275.63;1779081;79;21736;-81
2021/07/22 10:54:51;;;;;;;9.00;3.92;;;;;;;24.13;58.38;99276.72;1769083;81;21382;-80
2021/07/22 10:57:58;;;;;;;7.47;3.75;;;;;;;24.16;58.26;99267.20;1768587;81;21911;-80
2021/07/22 11:01:03;;;;;;;5.47;3.50;;;;;;;24.26;59.15;99264.06;1797267;79;21850;-81
2021/07/22 11:04:09;;;;;;;5.42;3.45;;;;;;;24.31;55.43;99271.83;1794764;79;21556;-81
2021/07/22 11:07:17;;;;;;;8.63;3.85;;;;;;;24.29;54.07;99271.87;1791693;79;21635;-80
2021/07/22 11:10:34;;;;;;;11.97;4.95;;;;;;;24.27;57.13;99266.55;1770262;79;21294;-81
2021/07/22 11:13:47;;;;;;;7.97;4.33;;;;;;;24.28;56.57;99267.38;1778720;79;21263;-80
2021/07/22 11:17:06;;;;;;;8.45;4.58;;;;;;;24.30;56.19;99263.19;1800846;79;21153;-81
2021/07/22 11:20:39;;;;;;;7.83;4.58;;;;;;;24.28;58.21;99261.25;1767855;81;21295;-80
2021/07/22 11:23:44;;;;;;;11.83;4.35;;;;;;;24.36;58.79;99269.55;1780868;79;21846;-80
2021/07/22 11:26:50;;;;;;;10.98;4.28;;;;;;;24.50;57.48;99272.55;1790341;79;21268;-80
2021/07/22 11:29:55;;;;;;;13.13;5.30;;;;;;;24.64;58.67;99276.33;1789446;80;21308;-80
2021/07/22 11:33:05;;;;;;;5.87;4.30;;;;;;;24.80;57.25;99286.82;1718532;82;21287;-81
2021/07/22 11:36:18;;;;;;;12.97;4.90;;;;;;;24.87;56.46;99286.72;1708005;82;21752;-81
2021/07/22 11:39:28;;;;;;;9.25;4.92;;;;;;;24.89;57.34;99276.63;1703588;84;21216;-81
2021/07/22 11:42:34;;;;;;;11.33;4.90;;;;;;;24.85;57.70;99274.18;1704233;84;21965;-80
2021/07/22 11:45:44;;;;;;;9.48;4.62;;;;;;;24.86;57.90;99270.25;1703969;84;21394;-81
2021/07/22 11:48:49;;;;;;;10.23;4.70;;;;;;;24.96;58.40;99271.53;1717947;82;21367;-81
2021/07/22 11:51:56;;;;;;;9.10;4.60;;;;;;;25.09;57.83;99272.27;1732860;82;21312;-81
2021/07/22 11:55:13;;;;;;;9.38;4.60;;;;;;;25.16;55.71;99269.92;1703685;84;21272;-81
2021/07/22 11:58:21;;;;;;;6.60;4.08;;;;;;;25.19;56.45;99272.14;1704408;83;21834;-81
2021/07/22 12:01:27;;;;;;;9.45;4.35;;;;;;;25.30;57.20;99265.02;1703384;84;21343;-81
2021/07/22 12:04:39;;;;;;;14.58;4.37;;;;;;;25.25;55.08;99250.52;1728784;82;21303;-81
2021/07/22 12:07:45;;;;;;;12.78;4.00;;;;;;;25.09;55.31;99249.05;1695041;82;21310;-81
2021/07/22 12:10:50;;;;;;;9.23;5.03;;;;;;;25.08;54.59;99237.03;1734358;82;21179;-81
2021/07/22 12:13:59;;;;;;;9.25;3.65;;;;;;;25.14;55.26;99230.23;1733097;82;22192;-81
2021/07/22 12:17:17;;;;;;;9.65;4.03;;;;;;;25.17;56.04;99232.45;1734297;82;21179;-81
2021/07/22 12:20:23;;;;;;;6.33;4.20;;;;;;;25.23;54.04;99245.23;1721205;82;21185;-81
2021/07/22 12:23:40;;;;;;;8.00;3.60;;;;;;;25.29;53.76;99247.97;1719791;82;21233;-81
2021/07/22 12:26:46;;;;;;;10.48;3.95;;;;;;;25.33;54.03;99228.05;1733473;82;21316;-82
2021/07/22 12:29:55;;;;;;;4.97;3.00;;;;;;;25.36;53.65;99238.63;1708884;82;21302;-81
2021/07/22 12:33:06;;;;;;;7.42;2.95;;;;;;;25.42;53.68;99244.44;1714355;82;21577;-82
2021/07/22 12:36:26;;;;;;;6.05;3.17;;;;;;;25.49;54.82;99246.29;1734187;82;21349;-82
2021/07/22 12:39:32;;;;;;;5.62;3.22;;;;;;;25.55;51.73;99248.45;1735042;82;21313;-81
2021/07/22 12:42:37;;;;;;;4.67;3.30;;;;;;;25.56;52.69;99257.14;1682738;82;21357;-81
2021/07/22 12:45:42;;;;;;;4.65;2.92;;;;;;;25.58;50.72;99247.28;1734488;82;21959;-82
2021/07/22 12:48:48;;;;;;;6.35;3.30;;;;;;;25.62;50.44;99259.55;1719747;82;21333;-81
2021/07/22 12:52:07;;;;;;;11.00;3.60;;;;;;;25.60;50.06;99255.41;1733073;83;21313;-82
2021/07/22 12:55:13;;;;;;;7.08;3.08;;;;;;;25.56;49.96;99259.37;1733133;83;21329;-82
2021/07/22 12:58:41;;;;;;;6.10;2.98;;;;;;;25.53;50.42;99266.12;1723969;82;21282;-82
2021/07/22 13:01:48;;;;;;;6.83;3.33;;;;;;;25.53;51.78;99282.35;1742716;80;21330;-81
2021/07/22 13:04:54;;;;;;;4.08;2.70;;;;;;;25.62;51.23;99274.95;1724651;82;21171;-81
2021/07/22 13:07:58;;;;;;;4.53;3.02;;;;;;;25.76;48.95;99282.66;1711466;83;21311;-82
2021/07/22 13:11:10;;;;;;;8.23;2.58;;;;;;;25.95;49.81;99277.89;1736450;82;21216;-82
2021/07/22 13:14:13;;;;;;;12.43;3.47;;;;;;;26.11;47.01;99279.34;1711428;83;21286;-82
2021/07/22 13:17:18;;;;;;;7.20;2.98;;;;;;;26.14;48.42;99287.12;1719595;83;21346;-81
2021/07/22 13:20:24;;;;;;;7.70;3.15;;;;;;;26.22;49.33;99291.22;1738760;82;21941;-81
2021/07/22 13:23:33;;;;;;;10.82;3.42;;;;;;;26.31;49.14;99288.56;1739990;82;21300;-82
2021/07/22 13:26:37;;;;;;;11.70;2.60;;;;;;;26.30;47.14;99275.66;1739360;82;21311;-82
2021/07/22 13:29:42;;;;;;;5.87;2.58;;;;;;;26.27;46.77;99284.70;1739418;82;21323;-82
2021/07/22 13:32:47;;;;;;;9.60;2.45;;;;;;;26.21;47.86;99284.78;1739840;82;21307;-82
2021/07/22 13:35:56;;;;;;;5.92;3.20;;;;;;;26.18;48.02;99281.17;1739840;82;21323;-82
2021/07/22 13:39:01;;;;;;;8.35;2.87;;;;;;;26.12;49.32;99283.80;1740019;82;21215;-81
2021/07/22 13:42:07;;;;;;;5.25;2.80;;;;;;;26.03;49.40;99280.59;1739869;82;21232;-81
2021/07/22 13:45:13;;;;;;;6.00;2.67;;;;;;;26.00;48.86;99282.84;1717067;82;21338;-81
2021/07/22 13:48:18;;;;;;;3.95;2.52;;;;;;;25.97;48.89;99279.80;1738521;82;21864;-82
2021/07/22 13:51:24;;;;;;;5.17;2.45;;;;;;;25.94;49.65;99279.03;1739931;82;21552;-81
2021/07/22 13:54:31;;;;;;;9.60;2.70;;;;;;;25.87;47.89;99277.16;1740030;82;21831;-82
2021/07/22 13:57:36;;;;;;;7.45;2.30;;;;;;;25.86;46.42;99285.30;1739004;82;21327;-82
2021/07/22 14:00:42;;;;;;;4.95;2.70;;;;;;;25.83;45.92;99289.56;1746433;82;21339;-82
2021/07/22 14:03:47;;;;;;;5.53;2.50;;;;;;;25.86;46.87;99295.11;1729111;83;21318;-82
2021/07/22 14:06:52;;;;;;;4.22;2.50;;;;;;;25.90;47.32;99279.36;1727835;83;21200;-82
2021/07/22 14:09:58;;;;;;;4.97;2.60;;;;;;;25.93;48.12;99282.41;1727802;83;21358;-82
2021/07/22 14:13:04;;;;;;;7.42;2.35;;;;;;;26.00;48.76;99283.41;1727817;83;21204;-82
2021/07/22 14:16:09;;;;;;;14.73;2.90;;;;;;;26.06;47.41;99275.19;1728130;83;21334;-82
2021/07/22 14:19:09;;;;;;;4.87;2.33;;;;;;;26.11;47.11;99279.88;1728334;83;21731;-82
2021/07/22 14:22:14;;;;;;;6.70;2.10;;;;;;;26.18;47.17;99271.94;1729202;83;21314;-82
2021/07/22 14:25:22;;;;;;;5.20;2.62;;;;;;;26.23;47.11;99273.25;1729135;83;21360;-82
2021/07/22 14:28:27;;;;;;;6.65;2.67;;;;;;;26.22;47.27;99265.98;1728232;83;21306;-82
2021/07/22 14:31:33;;;;;;;5.95;2.40;;;;;;;26.17;47.42;99272.51;1728047;83;21877;-82
2021/07/22 14:34:39;;;;;;;5.33;2.75;;;;;;;26.10;46.29;99272.05;1729252;83;21200;-82
2021/07/22 14:37:44;;;;;;;4.22;2.47;;;;;;;26.04;46.67;99274.67;1728764;83;21215;-82
2021/07/22 14:40:50;;;;;;;7.60;2.40;;;;;;;25.99;47.04;99270.55;1729726;83;21318;-82